sensor_id;sensor_type;location;lat;lon;timestamp;P1;durP1;ratioP1;P2;durP2;ratioP2
61702;SDS011;47622;47.726;3.298;2022-10-17T00:00:54;5.85;;;4.70;;
61702;SDS011;47622;47.726;3.298;2022-10-17T00:03:20;6.85;;;4.43;;
61702;SDS011;47622;47.726;3.298;2022-10-17T00:05:46;11.63;;;4.90;;
61702;SDS011;47622;47.726;3.298;2022-10-17T00:08:13;7.70;;;4.72;;
61702;SDS011;47622;47.726;3.298;2022-10-17T00:10:40;11.13;;;4.60;;
61702;SDS011;47622;47.726;3.298;2022-10-17T00:13:06;7.15;;;4.20;;
61702;SDS011;47622;47.726;3.298;2022-10-17T00:15:33;7.60;;;4.43;;
61702;SDS011;47622;47.726;3.298;2022-10-17T00:17:59;10.20;;;4.32;;
61702;SDS011;47622;47.726;3.298;2022-10-17T00:20:26;7.95;;;4.22;;
61702;SDS011;47622;47.726;3.298;2022-10-17T00:22:54;8.15;;;4.38;;
61702;SDS011;47622;47.726;3.298;2022-10-17T00:25:21;6.22;;;4.10;;
61702;SDS011;47622;47.726;3.298;2022-10-17T00:27:47;7.13;;;4.40;;
61702;SDS011;47622;47.726;3.298;2022-10-17T00:30:13;5.15;;;4.05;;
61702;SDS011;47622;47.726;3.298;2022-10-17T00:32:40;6.18;;;4.25;;
61702;SDS011;47622;47.726;3.298;2022-10-17T00:35:06;7.80;;;3.88;;
61702;SDS011;47622;47.726;3.298;2022-10-17T00:37:33;5.30;;;3.88;;
61702;SDS011;47622;47.726;3.298;2022-10-17T00:39:58;5.53;;;3.95;;
61702;SDS011;47622;47.726;3.298;2022-10-17T00:42:25;5.47;;;4.00;;
61702;SDS011;47622;47.726;3.298;2022-10-17T00:44:59;8.02;;;4.18;;
61702;SDS011;47622;47.726;3.298;2022-10-17T00:47:32;14.43;;;5.22;;
61702;SDS011;47622;47.726;3.298;2022-10-17T00:50:00;8.57;;;4.07;;
61702;SDS011;47622;47.726;3.298;2022-10-17T00:52:26;7.88;;;3.97;;
61702;SDS011;47622;47.726;3.298;2022-10-17T00:54:55;8.55;;;3.95;;
61702;SDS011;47622;47.726;3.298;2022-10-17T00:57:33;7.10;;;4.00;;
61702;SDS011;47622;47.726;3.298;2022-10-17T00:59:59;9.13;;;4.72;;
61702;SDS011;47622;47.726;3.298;2022-10-17T01:02:28;6.45;;;5.00;;
61702;SDS011;47622;47.726;3.298;2022-10-17T01:04:54;5.43;;;4.20;;
61702;SDS011;47622;47.726;3.298;2022-10-17T01:07:23;5.88;;;4.95;;
61702;SDS011;47622;47.726;3.298;2022-10-17T01:09:50;8.00;;;4.18;;
61702;SDS011;47622;47.726;3.298;2022-10-17T01:12:21;7.63;;;4.05;;
61702;SDS011;47622;47.726;3.298;2022-10-17T01:18:23;4.97;;;3.85;;
61702;SDS011;47622;47.726;3.298;2022-10-17T01:32:24;7.85;;;4.78;;
61702;SDS011;47622;47.726;3.298;2022-10-17T01:37:39;6.43;;;4.13;;
61702;SDS011;47622;47.726;3.298;2022-10-17T01:40:13;7.90;;;4.43;;
61702;SDS011;47622;47.726;3.298;2022-10-17T01:42:53;7.05;;;4.15;;
61702;SDS011;47622;47.726;3.298;2022-10-17T01:45:31;7.00;;;4.40;;
61702;SDS011;47622;47.726;3.298;2022-10-17T01:48:03;9.25;;;4.70;;
61702;SDS011;47622;47.726;3.298;2022-10-17T01:50:40;9.70;;;4.65;;
61702;SDS011;47622;47.726;3.298;2022-10-17T01:53:15;5.45;;;4.40;;
61702;SDS011;47622;47.726;3.298;2022-10-17T01:55:46;5.47;;;4.47;;
61702;SDS011;47622;47.726;3.298;2022-10-17T01:58:32;5.93;;;4.25;;
61702;SDS011;47622;47.726;3.298;2022-10-17T02:01:08;9.20;;;4.20;;
61702;SDS011;47622;47.726;3.298;2022-10-17T02:03:37;7.90;;;4.63;;
61702;SDS011;47622;47.726;3.298;2022-10-17T02:06:06;9.52;;;4.93;;
61702;SDS011;47622;47.726;3.298;2022-10-17T02:11:26;6.30;;;4.28;;
61702;SDS011;47622;47.726;3.298;2022-10-17T02:13:57;12.98;;;4.70;;
61702;SDS011;47622;47.726;3.298;2022-10-17T02:24:43;7.65;;;4.32;;
61702;SDS011;47622;47.726;3.298;2022-10-17T02:29:58;8.13;;;4.20;;
61702;SDS011;47622;47.726;3.298;2022-10-17T02:32:38;6.45;;;4.18;;
61702;SDS011;47622;47.726;3.298;2022-10-17T02:35:13;6.32;;;4.32;;
61702;SDS011;47622;47.726;3.298;2022-10-17T02:37:42;10.93;;;4.57;;
61702;SDS011;47622;47.726;3.298;2022-10-17T02:40:11;6.72;;;4.38;;
61702;SDS011;47622;47.726;3.298;2022-10-17T02:42:39;7.70;;;3.75;;
61702;SDS011;47622;47.726;3.298;2022-10-17T02:45:09;7.90;;;4.38;;
61702;SDS011;47622;47.726;3.298;2022-10-17T02:50:16;5.28;;;4.13;;
61702;SDS011;47622;47.726;3.298;2022-10-17T02:52:47;7.13;;;4.20;;
61702;SDS011;47622;47.726;3.298;2022-10-17T02:55:29;8.15;;;4.20;;
61702;SDS011;47622;47.726;3.298;2022-10-17T02:57:58;8.13;;;4.75;;
61702;SDS011;47622;47.726;3.298;2022-10-17T03:00:28;5.22;;;3.90;;
61702;SDS011;47622;47.726;3.298;2022-10-17T03:02:55;9.90;;;4.30;;
61702;SDS011;47622;47.726;3.298;2022-10-17T03:05:22;12.20;;;4.18;;
61702;SDS011;47622;47.726;3.298;2022-10-17T03:07:49;6.53;;;4.10;;
61702;SDS011;47622;47.726;3.298;2022-10-17T03:10:15;8.80;;;4.30;;
61702;SDS011;47622;47.726;3.298;2022-10-17T03:12:41;7.57;;;4.00;;
61702;SDS011;47622;47.726;3.298;2022-10-17T03:15:07;7.93;;;3.90;;
61702;SDS011;47622;47.726;3.298;2022-10-17T03:17:34;6.03;;;3.78;;
61702;SDS011;47622;47.726;3.298;2022-10-17T03:20:00;9.32;;;4.05;;
61702;SDS011;47622;47.726;3.298;2022-10-17T03:22:26;6.60;;;4.32;;
61702;SDS011;47622;47.726;3.298;2022-10-17T03:24:52;9.32;;;4.00;;
61702;SDS011;47622;47.726;3.298;2022-10-17T03:27:17;11.32;;;4.43;;
61702;SDS011;47622;47.726;3.298;2022-10-17T03:29:43;6.95;;;3.97;;
61702;SDS011;47622;47.726;3.298;2022-10-17T03:32:09;9.25;;;4.10;;
61702;SDS011;47622;47.726;3.298;2022-10-17T03:34:34;6.90;;;3.70;;
61702;SDS011;47622;47.726;3.298;2022-10-17T03:37:00;5.75;;;3.58;;
61702;SDS011;47622;47.726;3.298;2022-10-17T03:39:25;8.63;;;3.97;;
61702;SDS011;47622;47.726;3.298;2022-10-17T03:41:51;5.32;;;3.70;;
61702;SDS011;47622;47.726;3.298;2022-10-17T03:44:17;7.60;;;4.30;;
61702;SDS011;47622;47.726;3.298;2022-10-17T03:46:42;10.45;;;3.65;;
61702;SDS011;47622;47.726;3.298;2022-10-17T03:49:08;10.13;;;3.90;;
61702;SDS011;47622;47.726;3.298;2022-10-17T03:51:34;6.45;;;3.53;;
61702;SDS011;47622;47.726;3.298;2022-10-17T03:54:00;5.15;;;3.60;;
61702;SDS011;47622;47.726;3.298;2022-10-17T03:56:26;9.48;;;3.90;;
61702;SDS011;47622;47.726;3.298;2022-10-17T03:58:52;6.35;;;4.05;;
61702;SDS011;47622;47.726;3.298;2022-10-17T04:01:19;5.60;;;3.85;;
61702;SDS011;47622;47.726;3.298;2022-10-17T04:03:49;6.45;;;3.42;;
61702;SDS011;47622;47.726;3.298;2022-10-17T04:06:16;8.98;;;3.58;;
61702;SDS011;47622;47.726;3.298;2022-10-17T04:08:42;7.25;;;3.88;;
61702;SDS011;47622;47.726;3.298;2022-10-17T04:11:09;5.35;;;3.75;;
61702;SDS011;47622;47.726;3.298;2022-10-17T04:13:39;9.38;;;3.88;;
61702;SDS011;47622;47.726;3.298;2022-10-17T04:16:06;6.68;;;3.88;;
61702;SDS011;47622;47.726;3.298;2022-10-17T04:18:34;7.88;;;3.85;;
61702;SDS011;47622;47.726;3.298;2022-10-17T04:21:03;7.65;;;3.50;;
61702;SDS011;47622;47.726;3.298;2022-10-17T04:23:29;10.27;;;3.78;;
61702;SDS011;47622;47.726;3.298;2022-10-17T04:25:55;5.93;;;3.50;;
61702;SDS011;47622;47.726;3.298;2022-10-17T04:28:22;8.73;;;3.88;;
61702;SDS011;47622;47.726;3.298;2022-10-17T04:30:54;10.35;;;3.85;;
61702;SDS011;47622;47.726;3.298;2022-10-17T04:33:23;7.82;;;3.80;;
61702;SDS011;47622;47.726;3.298;2022-10-17T04:35:58;6.10;;;3.72;;
61702;SDS011;47622;47.726;3.298;2022-10-17T04:38:26;7.13;;;3.63;;
61702;SDS011;47622;47.726;3.298;2022-10-17T04:40:52;10.45;;;3.58;;
61702;SDS011;47622;47.726;3.298;2022-10-17T04:43:18;8.55;;;3.75;;
61702;SDS011;47622;47.726;3.298;2022-10-17T04:45:44;10.43;;;3.60;;
61702;SDS011;47622;47.726;3.298;2022-10-17T04:48:10;6.93;;;3.22;;
61702;SDS011;47622;47.726;3.298;2022-10-17T04:50:36;6.68;;;3.28;;
61702;SDS011;47622;47.726;3.298;2022-10-17T04:53:02;4.25;;;3.25;;
61702;SDS011;47622;47.726;3.298;2022-10-17T04:55:28;7.68;;;3.20;;
61702;SDS011;47622;47.726;3.298;2022-10-17T04:57:54;6.25;;;3.67;;
61702;SDS011;47622;47.726;3.298;2022-10-17T05:00:19;10.30;;;3.70;;
61702;SDS011;47622;47.726;3.298;2022-10-17T05:02:45;6.28;;;3.25;;
61702;SDS011;47622;47.726;3.298;2022-10-17T05:05:11;6.93;;;3.38;;
61702;SDS011;47622;47.726;3.298;2022-10-17T05:07:40;6.20;;;3.33;;
61702;SDS011;47622;47.726;3.298;2022-10-17T05:10:06;6.63;;;3.25;;
61702;SDS011;47622;47.726;3.298;2022-10-17T05:12:32;6.75;;;3.03;;
61702;SDS011;47622;47.726;3.298;2022-10-17T05:14:58;5.95;;;3.28;;
61702;SDS011;47622;47.726;3.298;2022-10-17T05:17:23;6.50;;;3.45;;
61702;SDS011;47622;47.726;3.298;2022-10-17T05:19:49;7.45;;;3.53;;
61702;SDS011;47622;47.726;3.298;2022-10-17T05:22:15;4.60;;;3.30;;
61702;SDS011;47622;47.726;3.298;2022-10-17T05:24:40;8.35;;;3.38;;
61702;SDS011;47622;47.726;3.298;2022-10-17T05:27:06;5.15;;;3.72;;
61702;SDS011;47622;47.726;3.298;2022-10-17T05:29:32;4.97;;;3.08;;
61702;SDS011;47622;47.726;3.298;2022-10-17T05:31:58;8.15;;;3.90;;
61702;SDS011;47622;47.726;3.298;2022-10-17T05:34:24;4.90;;;3.40;;
61702;SDS011;47622;47.726;3.298;2022-10-17T05:36:50;5.68;;;3.30;;
61702;SDS011;47622;47.726;3.298;2022-10-17T05:39:15;4.43;;;3.08;;
61702;SDS011;47622;47.726;3.298;2022-10-17T05:41:44;5.55;;;3.10;;
61702;SDS011;47622;47.726;3.298;2022-10-17T05:44:10;4.13;;;2.95;;
61702;SDS011;47622;47.726;3.298;2022-10-17T05:46:36;10.90;;;3.80;;
61702;SDS011;47622;47.726;3.298;2022-10-17T05:49:02;6.38;;;3.20;;
61702;SDS011;47622;47.726;3.298;2022-10-17T05:51:27;5.43;;;3.50;;
61702;SDS011;47622;47.726;3.298;2022-10-17T05:53:53;9.13;;;3.42;;
61702;SDS011;47622;47.726;3.298;2022-10-17T05:56:19;6.15;;;3.17;;
61702;SDS011;47622;47.726;3.298;2022-10-17T05:58:44;6.05;;;3.33;;
61702;SDS011;47622;47.726;3.298;2022-10-17T06:01:11;4.75;;;3.38;;
61702;SDS011;47622;47.726;3.298;2022-10-17T06:03:37;4.18;;;3.38;;
61702;SDS011;47622;47.726;3.298;2022-10-17T06:06:07;7.43;;;3.65;;
61702;SDS011;47622;47.726;3.298;2022-10-17T06:08:35;5.93;;;4.10;;
61702;SDS011;47622;47.726;3.298;2022-10-17T06:11:01;5.60;;;3.22;;
61702;SDS011;47622;47.726;3.298;2022-10-17T06:13:27;5.47;;;3.40;;
61702;SDS011;47622;47.726;3.298;2022-10-17T06:15:53;5.18;;;3.63;;
61702;SDS011;47622;47.726;3.298;2022-10-17T06:18:19;5.25;;;3.55;;
61702;SDS011;47622;47.726;3.298;2022-10-17T06:20:45;5.03;;;3.08;;
61702;SDS011;47622;47.726;3.298;2022-10-17T06:23:11;5.70;;;3.28;;
61702;SDS011;47622;47.726;3.298;2022-10-17T06:25:37;7.22;;;3.20;;
61702;SDS011;47622;47.726;3.298;2022-10-17T06:28:03;7.63;;;3.42;;
61702;SDS011;47622;47.726;3.298;2022-10-17T06:30:29;10.75;;;3.63;;
61702;SDS011;47622;47.726;3.298;2022-10-17T06:32:54;6.68;;;3.70;;
61702;SDS011;47622;47.726;3.298;2022-10-17T06:35:20;6.10;;;3.13;;
61702;SDS011;47622;47.726;3.298;2022-10-17T06:37:46;9.30;;;3.65;;
61702;SDS011;47622;47.726;3.298;2022-10-17T06:40:12;6.45;;;3.72;;
61702;SDS011;47622;47.726;3.298;2022-10-17T06:42:41;6.82;;;3.65;;
61702;SDS011;47622;47.726;3.298;2022-10-17T06:45:07;10.95;;;3.85;;
61702;SDS011;47622;47.726;3.298;2022-10-17T06:47:34;5.75;;;3.38;;
61702;SDS011;47622;47.726;3.298;2022-10-17T06:50:00;6.30;;;3.50;;
61702;SDS011;47622;47.726;3.298;2022-10-17T06:52:25;4.68;;;2.97;;
61702;SDS011;47622;47.726;3.298;2022-10-17T06:54:51;5.90;;;3.28;;
61702;SDS011;47622;47.726;3.298;2022-10-17T06:57:17;6.60;;;3.00;;
61702;SDS011;47622;47.726;3.298;2022-10-17T06:59:42;6.40;;;3.10;;
61702;SDS011;47622;47.726;3.298;2022-10-17T07:02:09;8.00;;;3.28;;
61702;SDS011;47622;47.726;3.298;2022-10-17T07:04:35;8.55;;;3.60;;
61702;SDS011;47622;47.726;3.298;2022-10-17T07:07:01;7.53;;;3.47;;
61702;SDS011;47622;47.726;3.298;2022-10-17T07:09:28;7.22;;;3.00;;
61702;SDS011;47622;47.726;3.298;2022-10-17T07:11:54;4.38;;;2.85;;
61702;SDS011;47622;47.726;3.298;2022-10-17T07:14:23;4.47;;;2.78;;
61702;SDS011;47622;47.726;3.298;2022-10-17T07:16:58;5.30;;;2.58;;
61702;SDS011;47622;47.726;3.298;2022-10-17T07:19:25;5.13;;;3.10;;
61702;SDS011;47622;47.726;3.298;2022-10-17T07:21:53;6.93;;;3.20;;
61702;SDS011;47622;47.726;3.298;2022-10-17T07:24:19;3.72;;;3.00;;
61702;SDS011;47622;47.726;3.298;2022-10-17T07:26:45;6.32;;;3.05;;
61702;SDS011;47622;47.726;3.298;2022-10-17T07:29:11;5.57;;;3.42;;
61702;SDS011;47622;47.726;3.298;2022-10-17T07:31:37;5.05;;;2.88;;
61702;SDS011;47622;47.726;3.298;2022-10-17T07:34:05;7.47;;;2.75;;
61702;SDS011;47622;47.726;3.298;2022-10-17T07:36:31;9.23;;;2.95;;
61702;SDS011;47622;47.726;3.298;2022-10-17T07:39:02;4.32;;;2.72;;
61702;SDS011;47622;47.726;3.298;2022-10-17T07:41:28;3.60;;;2.58;;
61702;SDS011;47622;47.726;3.298;2022-10-17T07:43:54;3.13;;;2.50;;
61702;SDS011;47622;47.726;3.298;2022-10-17T07:46:23;8.05;;;2.35;;
61702;SDS011;47622;47.726;3.298;2022-10-17T07:48:48;5.47;;;2.60;;
61702;SDS011;47622;47.726;3.298;2022-10-17T07:51:15;6.05;;;2.75;;
61702;SDS011;47622;47.726;3.298;2022-10-17T07:53:42;7.65;;;2.70;;
61702;SDS011;47622;47.726;3.298;2022-10-17T07:56:12;9.20;;;2.72;;
61702;SDS011;47622;47.726;3.298;2022-10-17T07:58:41;6.95;;;2.60;;
61702;SDS011;47622;47.726;3.298;2022-10-17T08:01:10;7.85;;;2.88;;
61702;SDS011;47622;47.726;3.298;2022-10-17T08:03:39;8.27;;;3.08;;
61702;SDS011;47622;47.726;3.298;2022-10-17T08:06:08;4.32;;;2.60;;
61702;SDS011;47622;47.726;3.298;2022-10-17T08:08:37;6.07;;;3.10;;
61702;SDS011;47622;47.726;3.298;2022-10-17T08:11:10;8.55;;;2.90;;
61702;SDS011;47622;47.726;3.298;2022-10-17T08:13:46;7.35;;;3.15;;
61702;SDS011;47622;47.726;3.298;2022-10-17T08:16:18;6.05;;;2.60;;
61702;SDS011;47622;47.726;3.298;2022-10-17T08:18:43;9.88;;;3.20;;
61702;SDS011;47622;47.726;3.298;2022-10-17T08:21:09;7.25;;;3.10;;
61702;SDS011;47622;47.726;3.298;2022-10-17T08:23:41;4.63;;;2.47;;
61702;SDS011;47622;47.726;3.298;2022-10-17T08:26:10;6.57;;;2.80;;
61702;SDS011;47622;47.726;3.298;2022-10-17T08:28:38;7.80;;;3.00;;
61702;SDS011;47622;47.726;3.298;2022-10-17T08:31:05;4.70;;;2.58;;
61702;SDS011;47622;47.726;3.298;2022-10-17T08:33:32;10.77;;;3.03;;
61702;SDS011;47622;47.726;3.298;2022-10-17T08:35:58;6.55;;;2.75;;
61702;SDS011;47622;47.726;3.298;2022-10-17T08:38:28;7.40;;;2.95;;
61702;SDS011;47622;47.726;3.298;2022-10-17T08:40:59;3.80;;;2.30;;
61702;SDS011;47622;47.726;3.298;2022-10-17T08:43:32;7.57;;;3.00;;
61702;SDS011;47622;47.726;3.298;2022-10-17T08:46:10;8.50;;;2.70;;
61702;SDS011;47622;47.726;3.298;2022-10-17T08:48:41;7.22;;;2.80;;
61702;SDS011;47622;47.726;3.298;2022-10-17T08:51:22;5.45;;;2.50;;
61702;SDS011;47622;47.726;3.298;2022-10-17T08:56:41;7.53;;;2.63;;
61702;SDS011;47622;47.726;3.298;2022-10-17T08:59:11;6.68;;;2.50;;
61702;SDS011;47622;47.726;3.298;2022-10-17T09:10:11;8.07;;;2.95;;
61702;SDS011;47622;47.726;3.298;2022-10-17T09:21:52;6.40;;;3.10;;
61702;SDS011;47622;47.726;3.298;2022-10-17T09:24:49;5.60;;;2.75;;
61702;SDS011;47622;47.726;3.298;2022-10-17T09:27:37;3.65;;;2.42;;
61702;SDS011;47622;47.726;3.298;2022-10-17T09:30:16;6.50;;;3.05;;
61702;SDS011;47622;47.726;3.298;2022-10-17T09:32:49;8.35;;;3.17;;
61702;SDS011;47622;47.726;3.298;2022-10-17T09:35:15;6.80;;;2.97;;
61702;SDS011;47622;47.726;3.298;2022-10-17T09:37:43;9.70;;;3.20;;
61702;SDS011;47622;47.726;3.298;2022-10-17T09:40:32;6.13;;;2.80;;
61702;SDS011;47622;47.726;3.298;2022-10-17T09:42:57;4.45;;;2.83;;
61702;SDS011;47622;47.726;3.298;2022-10-17T09:45:26;8.00;;;3.30;;
61702;SDS011;47622;47.726;3.298;2022-10-17T09:50:27;8.15;;;2.70;;
61702;SDS011;47622;47.726;3.298;2022-10-17T09:52:56;4.88;;;2.33;;
61702;SDS011;47622;47.726;3.298;2022-10-17T09:55:43;7.15;;;2.10;;
61702;SDS011;47622;47.726;3.298;2022-10-17T09:58:12;7.18;;;2.17;;
61702;SDS011;47622;47.726;3.298;2022-10-17T10:00:40;10.32;;;2.40;;
61702;SDS011;47622;47.726;3.298;2022-10-17T10:05:34;4.68;;;1.80;;
61702;SDS011;47622;47.726;3.298;2022-10-17T10:08:02;6.80;;;1.58;;
61702;SDS011;47622;47.726;3.298;2022-10-17T10:10:48;6.28;;;2.00;;
61702;SDS011;47622;47.726;3.298;2022-10-17T10:13:23;5.47;;;2.10;;
61702;SDS011;47622;47.726;3.298;2022-10-17T10:15:50;7.75;;;2.08;;
61702;SDS011;47622;47.726;3.298;2022-10-17T10:26:49;5.07;;;1.80;;
61702;SDS011;47622;47.726;3.298;2022-10-17T10:29:28;6.13;;;2.17;;
61702;SDS011;47622;47.726;3.298;2022-10-17T10:32:15;9.77;;;2.10;;
61702;SDS011;47622;47.726;3.298;2022-10-17T10:35:06;10.93;;;2.22;;
61702;SDS011;47622;47.726;3.298;2022-10-17T10:37:45;5.20;;;1.90;;
61702;SDS011;47622;47.726;3.298;2022-10-17T10:40:37;6.65;;;2.20;;
61702;SDS011;47622;47.726;3.298;2022-10-17T10:43:03;12.00;;;2.20;;
61702;SDS011;47622;47.726;3.298;2022-10-17T10:48:24;7.93;;;2.28;;
61702;SDS011;47622;47.726;3.298;2022-10-17T10:51:03;5.53;;;2.10;;
61702;SDS011;47622;47.726;3.298;2022-10-17T10:53:37;6.32;;;1.83;;
61702;SDS011;47622;47.726;3.298;2022-10-17T10:58:39;2.95;;;1.70;;
61702;SDS011;47622;47.726;3.298;2022-10-17T11:04:25;4.72;;;1.77;;
61702;SDS011;47622;47.726;3.298;2022-10-17T11:09:46;7.65;;;2.00;;
61702;SDS011;47622;47.726;3.298;2022-10-17T11:12:26;7.75;;;2.20;;
61702;SDS011;47622;47.726;3.298;2022-10-17T11:21:05;6.18;;;2.15;;
61702;SDS011;47622;47.726;3.298;2022-10-17T11:23:55;4.80;;;2.03;;
61702;SDS011;47622;47.726;3.298;2022-10-17T11:26:41;5.88;;;2.28;;
61702;SDS011;47622;47.726;3.298;2022-10-17T11:29:13;5.80;;;1.83;;
61702;SDS011;47622;47.726;3.298;2022-10-17T11:31:40;7.82;;;2.35;;
61702;SDS011;47622;47.726;3.298;2022-10-17T11:34:25;5.85;;;2.53;;
61702;SDS011;47622;47.726;3.298;2022-10-17T11:36:56;5.30;;;2.00;;
61702;SDS011;47622;47.726;3.298;2022-10-17T11:39:42;6.10;;;2.40;;
61702;SDS011;47622;47.726;3.298;2022-10-17T11:42:14;5.90;;;2.00;;
61702;SDS011;47622;47.726;3.298;2022-10-17T11:44:44;8.20;;;2.13;;
61702;SDS011;47622;47.726;3.298;2022-10-17T11:52:38;5.57;;;2.17;;
61702;SDS011;47622;47.726;3.298;2022-10-17T11:55:13;7.28;;;2.45;;
61702;SDS011;47622;47.726;3.298;2022-10-17T11:57:50;9.10;;;2.28;;
61702;SDS011;47622;47.726;3.298;2022-10-17T12:02:58;5.85;;;1.92;;
61702;SDS011;47622;47.726;3.298;2022-10-17T12:09:08;6.85;;;2.03;;
61702;SDS011;47622;47.726;3.298;2022-10-17T12:12:02;9.93;;;2.40;;
61702;SDS011;47622;47.726;3.298;2022-10-17T12:17:21;8.00;;;2.30;;
61702;SDS011;47622;47.726;3.298;2022-10-17T12:19:48;8.50;;;2.72;;
61702;SDS011;47622;47.726;3.298;2022-10-17T12:22:21;8.80;;;2.30;;
61702;SDS011;47622;47.726;3.298;2022-10-17T12:24:54;3.85;;;2.10;;
61702;SDS011;47622;47.726;3.298;2022-10-17T12:32:36;8.02;;;2.30;;
61702;SDS011;47622;47.726;3.298;2022-10-17T12:35:02;8.45;;;2.78;;
61702;SDS011;47622;47.726;3.298;2022-10-17T12:43:00;7.40;;;2.08;;
61702;SDS011;47622;47.726;3.298;2022-10-17T12:56:35;5.40;;;2.28;;
61702;SDS011;47622;47.726;3.298;2022-10-17T12:59:07;6.45;;;2.63;;
61702;SDS011;47622;47.726;3.298;2022-10-17T13:01:38;7.25;;;2.30;;
61702;SDS011;47622;47.726;3.298;2022-10-17T13:04:12;8.20;;;2.25;;
61702;SDS011;47622;47.726;3.298;2022-10-17T13:06:51;5.05;;;2.10;;
61702;SDS011;47622;47.726;3.298;2022-10-17T13:09:24;10.35;;;2.40;;
61702;SDS011;47622;47.726;3.298;2022-10-17T13:11:52;3.53;;;1.77;;
61702;SDS011;47622;47.726;3.298;2022-10-17T13:14:20;4.78;;;1.98;;
61702;SDS011;47622;47.726;3.298;2022-10-17T13:19:21;6.40;;;2.50;;
61702;SDS011;47622;47.726;3.298;2022-10-17T13:21:49;5.40;;;1.95;;
61702;SDS011;47622;47.726;3.298;2022-10-17T13:24:28;7.20;;;2.00;;
61702;SDS011;47622;47.726;3.298;2022-10-17T13:26:54;4.80;;;1.77;;
61702;SDS011;47622;47.726;3.298;2022-10-17T13:29:20;2.97;;;1.67;;
61702;SDS011;47622;47.726;3.298;2022-10-17T13:31:54;4.80;;;1.60;;
61702;SDS011;47622;47.726;3.298;2022-10-17T13:34:25;6.70;;;2.20;;
61702;SDS011;47622;47.726;3.298;2022-10-17T13:36:55;6.35;;;2.00;;
61702;SDS011;47622;47.726;3.298;2022-10-17T13:41:51;8.70;;;1.75;;
61702;SDS011;47622;47.726;3.298;2022-10-17T13:44:20;4.82;;;1.75;;
61702;SDS011;47622;47.726;3.298;2022-10-17T13:46:48;3.97;;;2.00;;
61702;SDS011;47622;47.726;3.298;2022-10-17T13:51:52;8.25;;;2.40;;
61702;SDS011;47622;47.726;3.298;2022-10-17T13:57:02;7.07;;;2.03;;
61702;SDS011;47622;47.726;3.298;2022-10-17T13:59:31;7.95;;;2.10;;
61702;SDS011;47622;47.726;3.298;2022-10-17T14:02:05;5.82;;;1.83;;
61702;SDS011;47622;47.726;3.298;2022-10-17T14:07:03;3.75;;;2.20;;
61702;SDS011;47622;47.726;3.298;2022-10-17T14:09:31;5.60;;;2.22;;
61702;SDS011;47622;47.726;3.298;2022-10-17T14:14:44;6.32;;;2.10;;
61702;SDS011;47622;47.726;3.298;2022-10-17T14:17:23;5.72;;;1.67;;
61702;SDS011;47622;47.726;3.298;2022-10-17T14:19:54;8.35;;;2.50;;
61702;SDS011;47622;47.726;3.298;2022-10-17T14:24:47;9.15;;;2.30;;
61702;SDS011;47622;47.726;3.298;2022-10-17T14:30:02;8.70;;;2.90;;
61702;SDS011;47622;47.726;3.298;2022-10-17T14:32:35;6.60;;;2.80;;
61702;SDS011;47622;47.726;3.298;2022-10-17T14:35:02;5.28;;;2.05;;
61702;SDS011;47622;47.726;3.298;2022-10-17T14:37:40;6.13;;;2.25;;
61702;SDS011;47622;47.726;3.298;2022-10-17T14:42:42;7.55;;;2.67;;
61702;SDS011;47622;47.726;3.298;2022-10-17T14:45:32;6.97;;;2.35;;
61702;SDS011;47622;47.726;3.298;2022-10-17T14:48:22;3.85;;;2.33;;
61702;SDS011;47622;47.726;3.298;2022-10-17T14:53:43;11.90;;;3.60;;
61702;SDS011;47622;47.726;3.298;2022-10-17T14:56:32;13.35;;;4.65;;
61702;SDS011;47622;47.726;3.298;2022-10-17T14:59:02;12.07;;;3.95;;
61702;SDS011;47622;47.726;3.298;2022-10-17T15:01:29;12.00;;;3.85;;
61702;SDS011;47622;47.726;3.298;2022-10-17T15:03:55;9.85;;;3.65;;
61702;SDS011;47622;47.726;3.298;2022-10-17T15:06:27;13.48;;;4.10;;
61702;SDS011;47622;47.726;3.298;2022-10-17T15:08:55;12.73;;;3.85;;
61702;SDS011;47622;47.726;3.298;2022-10-17T15:11:21;8.23;;;3.92;;
61702;SDS011;47622;47.726;3.298;2022-10-17T15:13:47;11.15;;;3.70;;
61702;SDS011;47622;47.726;3.298;2022-10-17T15:16:14;11.60;;;4.40;;
61702;SDS011;47622;47.726;3.298;2022-10-17T15:18:52;10.98;;;4.10;;
61702;SDS011;47622;47.726;3.298;2022-10-17T15:21:19;10.63;;;3.55;;
61702;SDS011;47622;47.726;3.298;2022-10-17T15:23:46;9.65;;;4.25;;
61702;SDS011;47622;47.726;3.298;2022-10-17T15:26:13;11.32;;;3.63;;
61702;SDS011;47622;47.726;3.298;2022-10-17T15:28:41;10.07;;;4.15;;
61702;SDS011;47622;47.726;3.298;2022-10-17T15:31:11;8.63;;;3.58;;
61702;SDS011;47622;47.726;3.298;2022-10-17T15:33:37;13.60;;;4.05;;
61702;SDS011;47622;47.726;3.298;2022-10-17T15:36:03;8.63;;;3.67;;
61702;SDS011;47622;47.726;3.298;2022-10-17T15:38:29;8.05;;;3.35;;
61702;SDS011;47622;47.726;3.298;2022-10-17T15:40:55;4.50;;;2.90;;
61702;SDS011;47622;47.726;3.298;2022-10-17T15:43:20;10.20;;;4.10;;
61702;SDS011;47622;47.726;3.298;2022-10-17T15:45:46;12.45;;;3.78;;
61702;SDS011;47622;47.726;3.298;2022-10-17T15:48:15;9.13;;;3.85;;
61702;SDS011;47622;47.726;3.298;2022-10-17T15:50:46;11.70;;;3.17;;
61702;SDS011;47622;47.726;3.298;2022-10-17T15:53:11;10.85;;;3.75;;
61702;SDS011;47622;47.726;3.298;2022-10-17T15:55:37;10.02;;;3.92;;
61702;SDS011;47622;47.726;3.298;2022-10-17T15:58:03;11.00;;;3.97;;
61702;SDS011;47622;47.726;3.298;2022-10-17T16:00:28;7.85;;;3.92;;
61702;SDS011;47622;47.726;3.298;2022-10-17T16:02:54;7.55;;;4.07;;
61702;SDS011;47622;47.726;3.298;2022-10-17T16:05:21;9.95;;;4.40;;
61702;SDS011;47622;47.726;3.298;2022-10-17T16:07:50;8.40;;;4.00;;
61702;SDS011;47622;47.726;3.298;2022-10-17T16:10:18;10.32;;;3.88;;
61702;SDS011;47622;47.726;3.298;2022-10-17T16:12:44;10.30;;;4.30;;
61702;SDS011;47622;47.726;3.298;2022-10-17T16:17:47;7.45;;;3.70;;
61702;SDS011;47622;47.726;3.298;2022-10-17T16:20:13;9.00;;;3.88;;
61702;SDS011;47622;47.726;3.298;2022-10-17T16:22:41;10.02;;;4.30;;
61702;SDS011;47622;47.726;3.298;2022-10-17T16:25:17;15.38;;;5.50;;
61702;SDS011;47622;47.726;3.298;2022-10-17T16:27:44;8.25;;;4.10;;
61702;SDS011;47622;47.726;3.298;2022-10-17T16:30:15;9.98;;;4.63;;
61702;SDS011;47622;47.726;3.298;2022-10-17T16:32:41;10.32;;;4.55;;
61702;SDS011;47622;47.726;3.298;2022-10-17T16:35:08;10.40;;;3.95;;
61702;SDS011;47622;47.726;3.298;2022-10-17T16:37:35;7.90;;;4.30;;
61702;SDS011;47622;47.726;3.298;2022-10-17T16:40:01;9.05;;;4.18;;
61702;SDS011;47622;47.726;3.298;2022-10-17T16:42:28;7.75;;;4.55;;
61702;SDS011;47622;47.726;3.298;2022-10-17T16:44:54;10.68;;;4.97;;
61702;SDS011;47622;47.726;3.298;2022-10-17T16:47:19;9.93;;;4.57;;
61702;SDS011;47622;47.726;3.298;2022-10-17T16:49:45;13.02;;;5.10;;
61702;SDS011;47622;47.726;3.298;2022-10-17T16:52:11;7.20;;;4.20;;
61702;SDS011;47622;47.726;3.298;2022-10-17T16:54:37;9.52;;;4.60;;
61702;SDS011;47622;47.726;3.298;2022-10-17T16:57:03;8.85;;;4.90;;
61702;SDS011;47622;47.726;3.298;2022-10-17T16:59:28;10.18;;;4.72;;
61702;SDS011;47622;47.726;3.298;2022-10-17T17:01:54;6.20;;;3.85;;
61702;SDS011;47622;47.726;3.298;2022-10-17T17:04:20;6.10;;;4.00;;
61702;SDS011;47622;47.726;3.298;2022-10-17T17:06:45;7.38;;;4.20;;
61702;SDS011;47622;47.726;3.298;2022-10-17T17:09:11;5.45;;;3.83;;
61702;SDS011;47622;47.726;3.298;2022-10-17T17:11:37;8.90;;;4.00;;
61702;SDS011;47622;47.726;3.298;2022-10-17T17:14:03;6.65;;;3.30;;
61702;SDS011;47622;47.726;3.298;2022-10-17T17:16:31;9.65;;;2.97;;
61702;SDS011;47622;47.726;3.298;2022-10-17T17:18:58;5.88;;;2.72;;
61702;SDS011;47622;47.726;3.298;2022-10-17T17:21:27;7.07;;;3.17;;
61702;SDS011;47622;47.726;3.298;2022-10-17T17:23:53;5.13;;;3.30;;
61702;SDS011;47622;47.726;3.298;2022-10-17T17:26:22;9.00;;;3.40;;
61702;SDS011;47622;47.726;3.298;2022-10-17T17:28:49;9.15;;;3.47;;